KSAF/SAF METAR and TAF weather

Enter ICAO airport designator
Station Type Date Time Source
KSAF METAR 2019/08/23 14:53 UTC NOAA

KSAF 231453Z 19006KT 10SM CLR 21/11 A3019 RMK AO2 SLP115 T02110111 51007


Station Type Date Time Source
KSAF Decoded METAR 2019/08/23 14:53 UTC NOAA

Station name not available
Aug 23, 2019 - 10:53 AM EDT / 2019.08.23 1453 UTC
Wind: from the S (190 degrees) at 7 MPH (6 KT):0
Visibility: 10 mile(s):0
Sky conditions: clear
Temperature: 70.0 F (21.1 C)
Dew Point: 52.0 F (11.1 C)
Relative Humidity: 52%
Pressure (altimeter): 30.19 in. Hg (1022 hPa)
Pressure tendency: 0.02 inches (0.7 hPa) higher than three hours ago
ob: KSAF 231453Z 19006KT 10SM CLR 21/11 A3019 RMK AO2 SLP115 T02110111 51007
cycle: 15

Station Type Date Time Source
KSAF TAF 2019/08/23 12:24 UTC NOAA

TAF KSAF 231123Z 2312/2412 14006KT P6SM BKN250
FM231900 26010KT P6SM SCT100
FM240200 11008KT P6SM SCT120
FM240600 03006KT P6SM SCT200

Example: see airport list